sensor_id;sensor_type;location;lat;lon;timestamp;temperature;humidity
9497;DHT22;4786;51.270;4.456;2022-09-25T00:02:01;12.80;99.90
9497;DHT22;4786;51.270;4.456;2022-09-25T00:04:26;12.70;99.90
9497;DHT22;4786;51.270;4.456;2022-09-25T00:06:53;12.70;99.90
9497;DHT22;4786;51.270;4.456;2022-09-25T00:09:19;12.60;99.90
9497;DHT22;4786;51.270;4.456;2022-09-25T00:11:47;12.60;99.90
9497;DHT22;4786;51.270;4.456;2022-09-25T00:14:14;12.60;99.90
9497;DHT22;4786;51.270;4.456;2022-09-25T00:16:40;12.50;99.90
9497;DHT22;4786;51.270;4.456;2022-09-25T00:19:05;12.50;99.90
9497;DHT22;4786;51.270;4.456;2022-09-25T00:21:50;12.50;99.90
9497;DHT22;4786;51.270;4.456;2022-09-25T00:24:17;12.40;99.90
9497;DHT22;4786;51.270;4.456;2022-09-25T00:26:44;12.40;99.90
9497;DHT22;4786;51.270;4.456;2022-09-25T00:29:18;12.40;99.90
9497;DHT22;4786;51.270;4.456;2022-09-25T00:31:44;12.30;99.90
9497;DHT22;4786;51.270;4.456;2022-09-25T00:34:10;12.30;99.90
9497;DHT22;4786;51.270;4.456;2022-09-25T00:36:37;12.30;99.90
9497;DHT22;4786;51.270;4.456;2022-09-25T00:39:03;12.30;99.90
9497;DHT22;4786;51.270;4.456;2022-09-25T00:41:30;12.30;99.90
9497;DHT22;4786;51.270;4.456;2022-09-25T00:43:57;12.30;99.90
9497;DHT22;4786;51.270;4.456;2022-09-25T00:46:33;12.20;99.90
9497;DHT22;4786;51.270;4.456;2022-09-25T00:49:14;12.20;99.90
9497;DHT22;4786;51.270;4.456;2022-09-25T00:51:47;12.20;99.90
9497;DHT22;4786;51.270;4.456;2022-09-25T00:54:29;12.20;99.90
9497;DHT22;4786;51.270;4.456;2022-09-25T00:56:56;12.20;99.90
9497;DHT22;4786;51.270;4.456;2022-09-25T00:59:32;12.20;99.90
9497;DHT22;4786;51.270;4.456;2022-09-25T01:02:01;12.10;99.90
9497;DHT22;4786;51.270;4.456;2022-09-25T01:04:28;12.10;99.90
9497;DHT22;4786;51.270;4.456;2022-09-25T01:06:56;12.10;99.90
9497;DHT22;4786;51.270;4.456;2022-09-25T01:09:22;12.10;99.90
9497;DHT22;4786;51.270;4.456;2022-09-25T01:11:49;12.10;99.90
9497;DHT22;4786;51.270;4.456;2022-09-25T01:14:15;12.00;99.90
9497;DHT22;4786;51.270;4.456;2022-09-25T01:17:01;12.00;99.90
9497;DHT22;4786;51.270;4.456;2022-09-25T01:30:51;11.80;99.90
9497;DHT22;4786;51.270;4.456;2022-09-25T01:33:35;11.80;99.90
9497;DHT22;4786;51.270;4.456;2022-09-25T01:36:28;11.80;99.90
9497;DHT22;4786;51.270;4.456;2022-09-25T01:39:02;11.70;99.90
9497;DHT22;4786;51.270;4.456;2022-09-25T01:41:37;11.70;99.90
9497;DHT22;4786;51.270;4.456;2022-09-25T01:44:13;11.70;99.90
9497;DHT22;4786;51.270;4.456;2022-09-25T01:46:44;11.60;99.90
9497;DHT22;4786;51.270;4.456;2022-09-25T01:49:32;11.60;99.90
9497;DHT22;4786;51.270;4.456;2022-09-25T01:52:02;11.60;99.90
9497;DHT22;4786;51.270;4.456;2022-09-25T01:54:38;11.50;99.90
9497;DHT22;4786;51.270;4.456;2022-09-25T01:57:29;11.50;99.90
9497;DHT22;4786;51.270;4.456;2022-09-25T02:00:10;11.40;99.90
9497;DHT22;4786;51.270;4.456;2022-09-25T02:02:41;11.30;99.90
9497;DHT22;4786;51.270;4.456;2022-09-25T02:05:27;11.30;99.90
9497;DHT22;4786;51.270;4.456;2022-09-25T02:07:59;11.20;99.90
9497;DHT22;4786;51.270;4.456;2022-09-25T02:10:36;11.20;99.90
9497;DHT22;4786;51.270;4.456;2022-09-25T02:13:13;11.30;99.90
9497;DHT22;4786;51.270;4.456;2022-09-25T02:15:46;11.20;99.90
9497;DHT22;4786;51.270;4.456;2022-09-25T02:18:16;11.20;99.90
9497;DHT22;4786;51.270;4.456;2022-09-25T02:21:28;11.10;99.90
9497;DHT22;4786;51.270;4.456;2022-09-25T02:26:35;11.10;99.90
9497;DHT22;4786;51.270;4.456;2022-09-25T02:29:02;11.10;99.90
9497;DHT22;4786;51.270;4.456;2022-09-25T02:31:33;11.00;99.90
9497;DHT22;4786;51.270;4.456;2022-09-25T02:34:01;10.90;99.90
9497;DHT22;4786;51.270;4.456;2022-09-25T02:36:28;10.90;99.90
9497;DHT22;4786;51.270;4.456;2022-09-25T02:38:55;10.90;99.90
9497;DHT22;4786;51.270;4.456;2022-09-25T02:55:12;10.70;99.90
9497;DHT22;4786;51.270;4.456;2022-09-25T03:00:11;10.70;99.90
9497;DHT22;4786;51.270;4.456;2022-09-25T03:02:38;10.70;99.90
9497;DHT22;4786;51.270;4.456;2022-09-25T03:05:10;10.60;99.90
9497;DHT22;4786;51.270;4.456;2022-09-25T03:07:36;10.50;99.90
9497;DHT22;4786;51.270;4.456;2022-09-25T03:10:22;10.60;99.90
9497;DHT22;4786;51.270;4.456;2022-09-25T03:12:48;10.60;99.90
9497;DHT22;4786;51.270;4.456;2022-09-25T03:15:14;10.50;99.90
9497;DHT22;4786;51.270;4.456;2022-09-25T03:17:41;10.50;99.90
9497;DHT22;4786;51.270;4.456;2022-09-25T03:20:08;10.40;99.90
9497;DHT22;4786;51.270;4.456;2022-09-25T03:22:35;10.40;99.90
9497;DHT22;4786;51.270;4.456;2022-09-25T03:25:03;10.40;99.90
9497;DHT22;4786;51.270;4.456;2022-09-25T03:27:28;10.40;99.90
9497;DHT22;4786;51.270;4.456;2022-09-25T03:29:55;10.30;99.90
9497;DHT22;4786;51.270;4.456;2022-09-25T03:32:21;10.30;99.90
9497;DHT22;4786;51.270;4.456;2022-09-25T03:34:47;10.30;99.90
9497;DHT22;4786;51.270;4.456;2022-09-25T03:37:13;10.30;99.90
9497;DHT22;4786;51.270;4.456;2022-09-25T03:39:39;10.40;99.90
9497;DHT22;4786;51.270;4.456;2022-09-25T03:42:04;10.40;99.90
9497;DHT22;4786;51.270;4.456;2022-09-25T03:44:30;10.40;99.90
9497;DHT22;4786;51.270;4.456;2022-09-25T03:46:56;10.40;99.90
9497;DHT22;4786;51.270;4.456;2022-09-25T03:49:21;10.40;99.90
9497;DHT22;4786;51.270;4.456;2022-09-25T03:51:47;10.30;99.90
9497;DHT22;4786;51.270;4.456;2022-09-25T03:54:13;10.30;99.90
9497;DHT22;4786;51.270;4.456;2022-09-25T03:56:39;10.20;99.90
9497;DHT22;4786;51.270;4.456;2022-09-25T03:59:06;10.20;99.90
9497;DHT22;4786;51.270;4.456;2022-09-25T04:01:31;10.20;99.90
9497;DHT22;4786;51.270;4.456;2022-09-25T04:03:58;10.20;99.90
9497;DHT22;4786;51.270;4.456;2022-09-25T04:06:27;10.10;99.90
9497;DHT22;4786;51.270;4.456;2022-09-25T04:08:53;10.10;99.90
9497;DHT22;4786;51.270;4.456;2022-09-25T04:11:21;10.10;99.90
9497;DHT22;4786;51.270;4.456;2022-09-25T04:13:47;10.10;99.90
9497;DHT22;4786;51.270;4.456;2022-09-25T04:16:15;10.00;99.90
9497;DHT22;4786;51.270;4.456;2022-09-25T04:18:41;10.00;99.90
9497;DHT22;4786;51.270;4.456;2022-09-25T04:21:08;9.90;99.90
9497;DHT22;4786;51.270;4.456;2022-09-25T04:23:35;9.90;99.90
9497;DHT22;4786;51.270;4.456;2022-09-25T04:26:02;10.00;99.90
9497;DHT22;4786;51.270;4.456;2022-09-25T04:28:28;10.00;99.90
9497;DHT22;4786;51.270;4.456;2022-09-25T04:30:56;10.00;99.90
9497;DHT22;4786;51.270;4.456;2022-09-25T04:33:22;9.90;99.90
9497;DHT22;4786;51.270;4.456;2022-09-25T04:36:07;10.00;99.90
9497;DHT22;4786;51.270;4.456;2022-09-25T04:38:33;9.90;99.90
9497;DHT22;4786;51.270;4.456;2022-09-25T04:40:59;9.90;99.90
9497;DHT22;4786;51.270;4.456;2022-09-25T04:43:29;10.00;99.90
9497;DHT22;4786;51.270;4.456;2022-09-25T04:46:03;10.00;99.90
9497;DHT22;4786;51.270;4.456;2022-09-25T04:48:30;10.00;99.90
9497;DHT22;4786;51.270;4.456;2022-09-25T04:50:56;10.00;99.90
9497;DHT22;4786;51.270;4.456;2022-09-25T04:53:23;10.00;99.90
9497;DHT22;4786;51.270;4.456;2022-09-25T04:55:50;10.00;99.90
9497;DHT22;4786;51.270;4.456;2022-09-25T04:58:19;9.90;99.90
9497;DHT22;4786;51.270;4.456;2022-09-25T05:00:45;9.90;99.90
9497;DHT22;4786;51.270;4.456;2022-09-25T05:03:11;9.90;99.90
9497;DHT22;4786;51.270;4.456;2022-09-25T05:05:37;9.90;99.90
9497;DHT22;4786;51.270;4.456;2022-09-25T05:08:03;9.80;99.90
9497;DHT22;4786;51.270;4.456;2022-09-25T05:10:31;9.80;99.90
9497;DHT22;4786;51.270;4.456;2022-09-25T05:13:02;9.80;99.90
9497;DHT22;4786;51.270;4.456;2022-09-25T05:15:30;9.70;99.90
9497;DHT22;4786;51.270;4.456;2022-09-25T05:18:14;9.70;99.90
9497;DHT22;4786;51.270;4.456;2022-09-25T05:20:41;9.70;99.90
9497;DHT22;4786;51.270;4.456;2022-09-25T05:23:07;9.70;99.90
9497;DHT22;4786;51.270;4.456;2022-09-25T05:25:33;9.70;99.90
9497;DHT22;4786;51.270;4.456;2022-09-25T05:27:59;9.70;99.90
9497;DHT22;4786;51.270;4.456;2022-09-25T05:30:30;9.70;99.90
9497;DHT22;4786;51.270;4.456;2022-09-25T05:32:56;9.60;99.90
9497;DHT22;4786;51.270;4.456;2022-09-25T05:35:27;9.70;99.90
9497;DHT22;4786;51.270;4.456;2022-09-25T05:37:53;9.70;99.90
9497;DHT22;4786;51.270;4.456;2022-09-25T05:40:20;9.70;99.90
9497;DHT22;4786;51.270;4.456;2022-09-25T05:42:46;9.80;99.90
9497;DHT22;4786;51.270;4.456;2022-09-25T05:45:13;9.70;99.90
9497;DHT22;4786;51.270;4.456;2022-09-25T05:47:40;9.70;99.90
9497;DHT22;4786;51.270;4.456;2022-09-25T05:50:08;9.70;99.90
9497;DHT22;4786;51.270;4.456;2022-09-25T05:52:35;9.70;99.90
9497;DHT22;4786;51.270;4.456;2022-09-25T05:55:00;9.70;99.90
9497;DHT22;4786;51.270;4.456;2022-09-25T05:57:30;9.70;99.90
9497;DHT22;4786;51.270;4.456;2022-09-25T05:59:56;9.60;99.90
9497;DHT22;4786;51.270;4.456;2022-09-25T06:02:21;9.60;99.90
9497;DHT22;4786;51.270;4.456;2022-09-25T06:04:47;9.70;99.90
9497;DHT22;4786;51.270;4.456;2022-09-25T06:07:13;9.70;99.90
9497;DHT22;4786;51.270;4.456;2022-09-25T06:09:39;9.70;99.90
9497;DHT22;4786;51.270;4.456;2022-09-25T06:12:05;9.70;99.90
9497;DHT22;4786;51.270;4.456;2022-09-25T06:14:32;9.70;99.90
9497;DHT22;4786;51.270;4.456;2022-09-25T06:17:00;9.70;99.90
9497;DHT22;4786;51.270;4.456;2022-09-25T06:19:25;9.70;99.90
9497;DHT22;4786;51.270;4.456;2022-09-25T06:21:53;9.80;99.90
9497;DHT22;4786;51.270;4.456;2022-09-25T06:24:19;9.80;99.90
9497;DHT22;4786;51.270;4.456;2022-09-25T06:26:45;9.80;99.90
9497;DHT22;4786;51.270;4.456;2022-09-25T06:29:12;9.70;99.90
9497;DHT22;4786;51.270;4.456;2022-09-25T06:31:38;9.70;99.90
9497;DHT22;4786;51.270;4.456;2022-09-25T06:34:03;9.80;99.90
9497;DHT22;4786;51.270;4.456;2022-09-25T06:36:30;9.80;99.90
9497;DHT22;4786;51.270;4.456;2022-09-25T06:38:57;9.90;99.90
9497;DHT22;4786;51.270;4.456;2022-09-25T06:41:23;9.90;99.90
9497;DHT22;4786;51.270;4.456;2022-09-25T06:43:52;10.00;99.90
9497;DHT22;4786;51.270;4.456;2022-09-25T06:46:18;10.10;99.90
9497;DHT22;4786;51.270;4.456;2022-09-25T06:49:04;10.10;99.90
9497;DHT22;4786;51.270;4.456;2022-09-25T06:51:33;10.10;99.90
9497;DHT22;4786;51.270;4.456;2022-09-25T06:53:59;10.10;99.90
9497;DHT22;4786;51.270;4.456;2022-09-25T06:56:25;10.10;99.90
9497;DHT22;4786;51.270;4.456;2022-09-25T06:58:51;10.20;99.90
9497;DHT22;4786;51.270;4.456;2022-09-25T07:01:17;10.40;99.90
9497;DHT22;4786;51.270;4.456;2022-09-25T07:03:42;10.60;99.90
9497;DHT22;4786;51.270;4.456;2022-09-25T07:06:17;10.80;99.90
9497;DHT22;4786;51.270;4.456;2022-09-25T07:08:44;10.90;99.90
9497;DHT22;4786;51.270;4.456;2022-09-25T07:11:15;11.00;99.90
9497;DHT22;4786;51.270;4.456;2022-09-25T07:13:41;11.00;99.90
9497;DHT22;4786;51.270;4.456;2022-09-25T07:16:12;11.10;99.90
9497;DHT22;4786;51.270;4.456;2022-09-25T07:18:38;11.10;99.90
9497;DHT22;4786;51.270;4.456;2022-09-25T07:21:11;11.10;99.90
9497;DHT22;4786;51.270;4.456;2022-09-25T07:23:37;11.10;99.90
9497;DHT22;4786;51.270;4.456;2022-09-25T07:26:09;11.20;99.90
9497;DHT22;4786;51.270;4.456;2022-09-25T07:28:36;11.30;99.90
9497;DHT22;4786;51.270;4.456;2022-09-25T07:31:17;11.40;99.90
9497;DHT22;4786;51.270;4.456;2022-09-25T07:33:44;11.60;99.90
9497;DHT22;4786;51.270;4.456;2022-09-25T07:36:11;11.80;99.90
9497;DHT22;4786;51.270;4.456;2022-09-25T07:38:37;12.00;99.90
9497;DHT22;4786;51.270;4.456;2022-09-25T07:41:04;12.30;99.90
9497;DHT22;4786;51.270;4.456;2022-09-25T07:43:33;12.50;99.90
9497;DHT22;4786;51.270;4.456;2022-09-25T07:46:00;12.80;99.90
9497;DHT22;4786;51.270;4.456;2022-09-25T07:48:26;13.10;99.90
9497;DHT22;4786;51.270;4.456;2022-09-25T07:50:58;13.30;99.90
9497;DHT22;4786;51.270;4.456;2022-09-25T07:53:24;13.50;99.90
9497;DHT22;4786;51.270;4.456;2022-09-25T07:55:49;13.70;99.90
9497;DHT22;4786;51.270;4.456;2022-09-25T07:58:15;13.80;99.90
9497;DHT22;4786;51.270;4.456;2022-09-25T08:00:44;13.90;99.90
9497;DHT22;4786;51.270;4.456;2022-09-25T08:03:10;14.00;99.90
9497;DHT22;4786;51.270;4.456;2022-09-25T08:05:36;14.00;99.90
9497;DHT22;4786;51.270;4.456;2022-09-25T08:08:02;14.00;99.90
9497;DHT22;4786;51.270;4.456;2022-09-25T08:10:28;14.00;99.90
9497;DHT22;4786;51.270;4.456;2022-09-25T08:12:54;14.10;99.90
9497;DHT22;4786;51.270;4.456;2022-09-25T08:15:20;14.10;99.90
9497;DHT22;4786;51.270;4.456;2022-09-25T08:17:46;14.30;99.90
9497;DHT22;4786;51.270;4.456;2022-09-25T08:20:12;14.30;99.90
9497;DHT22;4786;51.270;4.456;2022-09-25T08:22:38;14.40;99.90
9497;DHT22;4786;51.270;4.456;2022-09-25T08:25:04;14.40;99.90
9497;DHT22;4786;51.270;4.456;2022-09-25T08:27:30;14.40;99.90
9497;DHT22;4786;51.270;4.456;2022-09-25T08:29:57;14.40;99.90
9497;DHT22;4786;51.270;4.456;2022-09-25T08:32:23;14.50;99.90
9497;DHT22;4786;51.270;4.456;2022-09-25T08:34:49;14.50;99.90
9497;DHT22;4786;51.270;4.456;2022-09-25T08:37:15;14.40;99.90
9497;DHT22;4786;51.270;4.456;2022-09-25T08:39:41;14.40;99.90
9497;DHT22;4786;51.270;4.456;2022-09-25T08:42:21;14.40;99.90
9497;DHT22;4786;51.270;4.456;2022-09-25T08:44:52;14.50;99.90
9497;DHT22;4786;51.270;4.456;2022-09-25T08:47:39;14.60;99.90
9497;DHT22;4786;51.270;4.456;2022-09-25T08:50:24;14.80;99.90
9497;DHT22;4786;51.270;4.456;2022-09-25T08:53:03;15.00;99.90
9497;DHT22;4786;51.270;4.456;2022-09-25T08:55:33;15.30;99.90
9497;DHT22;4786;51.270;4.456;2022-09-25T08:58:29;15.40;99.90
9497;DHT22;4786;51.270;4.456;2022-09-25T09:01:02;15.60;99.90
9497;DHT22;4786;51.270;4.456;2022-09-25T09:03:32;15.80;99.90
9497;DHT22;4786;51.270;4.456;2022-09-25T09:06:02;16.10;99.90
9497;DHT22;4786;51.270;4.456;2022-09-25T09:08:32;16.30;99.90
9497;DHT22;4786;51.270;4.456;2022-09-25T09:11:14;16.40;99.90
9497;DHT22;4786;51.270;4.456;2022-09-25T09:13:50;16.50;99.90
9497;DHT22;4786;51.270;4.456;2022-09-25T09:18:46;16.60;99.90
9497;DHT22;4786;51.270;4.456;2022-09-25T09:22:01;16.80;99.90
9497;DHT22;4786;51.270;4.456;2022-09-25T09:26:40;17.20;99.90
9497;DHT22;4786;51.270;4.456;2022-09-25T09:31:55;17.20;99.90
9497;DHT22;4786;51.270;4.456;2022-09-25T09:40:17;17.40;99.90
9497;DHT22;4786;51.270;4.456;2022-09-25T09:51:21;18.00;99.90
9497;DHT22;4786;51.270;4.456;2022-09-25T09:56:21;18.50;99.90
9497;DHT22;4786;51.270;4.456;2022-09-25T09:58:53;18.50;99.90
9497;DHT22;4786;51.270;4.456;2022-09-25T10:01:23;18.10;99.90
9497;DHT22;4786;51.270;4.456;2022-09-25T10:04:03;18.10;99.90
9497;DHT22;4786;51.270;4.456;2022-09-25T10:06:32;18.00;99.90
9497;DHT22;4786;51.270;4.456;2022-09-25T10:08:59;18.00;99.90
9497;DHT22;4786;51.270;4.456;2022-09-25T10:11:27;18.10;99.90
9497;DHT22;4786;51.270;4.456;2022-09-25T10:13:57;18.20;99.90
9497;DHT22;4786;51.270;4.456;2022-09-25T10:16:25;18.30;99.90
9497;DHT22;4786;51.270;4.456;2022-09-25T10:21:30;18.90;99.90
9497;DHT22;4786;51.270;4.456;2022-09-25T10:23:57;19.00;99.90
9497;DHT22;4786;51.270;4.456;2022-09-25T10:28:57;19.20;99.90
9497;DHT22;4786;51.270;4.456;2022-09-25T10:31:33;19.00;99.90
9497;DHT22;4786;51.270;4.456;2022-09-25T10:36:31;18.50;99.90
9497;DHT22;4786;51.270;4.456;2022-09-25T10:38:57;18.40;99.90
9497;DHT22;4786;51.270;4.456;2022-09-25T10:41:23;18.20;99.90
9497;DHT22;4786;51.270;4.456;2022-09-25T10:46:27;17.90;99.90
9497;DHT22;4786;51.270;4.456;2022-09-25T10:49:24;17.80;99.90
9497;DHT22;4786;51.270;4.456;2022-09-25T10:52:14;17.60;99.90
9497;DHT22;4786;51.270;4.456;2022-09-25T10:54:40;17.40;99.90
9497;DHT22;4786;51.270;4.456;2022-09-25T10:57:24;17.30;99.90
9497;DHT22;4786;51.270;4.456;2022-09-25T11:00:00;17.20;99.90
9497;DHT22;4786;51.270;4.456;2022-09-25T11:05:00;17.00;99.90
9497;DHT22;4786;51.270;4.456;2022-09-25T11:07:27;17.00;99.90
9497;DHT22;4786;51.270;4.456;2022-09-25T11:09:52;17.10;99.90
9497;DHT22;4786;51.270;4.456;2022-09-25T11:12:24;17.40;99.90
9497;DHT22;4786;51.270;4.456;2022-09-25T11:15:05;17.70;99.90
9497;DHT22;4786;51.270;4.456;2022-09-25T11:17:41;18.00;99.90
9497;DHT22;4786;51.270;4.456;2022-09-25T11:23:21;18.50;99.90
9497;DHT22;4786;51.270;4.456;2022-09-25T11:26:12;18.70;99.90
9497;DHT22;4786;51.270;4.456;2022-09-25T11:28:45;18.50;99.90
9497;DHT22;4786;51.270;4.456;2022-09-25T11:31:24;18.40;99.90
9497;DHT22;4786;51.270;4.456;2022-09-25T11:34:32;18.20;99.90
9497;DHT22;4786;51.270;4.456;2022-09-25T11:43:16;17.60;99.90
9497;DHT22;4786;51.270;4.456;2022-09-25T11:46:21;17.30;99.90
9497;DHT22;4786;51.270;4.456;2022-09-25T11:48:51;17.20;99.90
9497;DHT22;4786;51.270;4.456;2022-09-25T11:56:48;17.10;99.90
9497;DHT22;4786;51.270;4.456;2022-09-25T12:02:15;17.60;99.90
9497;DHT22;4786;51.270;4.456;2022-09-25T12:05:06;17.80;99.90
9497;DHT22;4786;51.270;4.456;2022-09-25T12:21:48;19.20;99.90
9497;DHT22;4786;51.270;4.456;2022-09-25T12:26:54;19.50;99.90
9497;DHT22;4786;51.270;4.456;2022-09-25T12:29:49;19.70;99.90
9497;DHT22;4786;51.270;4.456;2022-09-25T12:37:58;20.20;99.90
9497;DHT22;4786;51.270;4.456;2022-09-25T12:41:32;20.10;99.90
9497;DHT22;4786;51.270;4.456;2022-09-25T12:44:16;20.10;99.90
9497;DHT22;4786;51.270;4.456;2022-09-25T12:46:52;19.90;99.90
9497;DHT22;4786;51.270;4.456;2022-09-25T12:49:45;19.90;99.90
9497;DHT22;4786;51.270;4.456;2022-09-25T12:52:37;19.90;99.90
9497;DHT22;4786;51.270;4.456;2022-09-25T12:55:28;19.50;99.90
9497;DHT22;4786;51.270;4.456;2022-09-25T13:10:32;19.20;99.90
9497;DHT22;4786;51.270;4.456;2022-09-25T13:13:03;19.10;99.90
9497;DHT22;4786;51.270;4.456;2022-09-25T13:15:32;19.10;99.90
9497;DHT22;4786;51.270;4.456;2022-09-25T13:17:59;19.00;99.90
9497;DHT22;4786;51.270;4.456;2022-09-25T13:23:07;18.90;99.90
9497;DHT22;4786;51.270;4.456;2022-09-25T13:25:48;18.80;99.90
9497;DHT22;4786;51.270;4.456;2022-09-25T13:28:37;18.80;99.90
9497;DHT22;4786;51.270;4.456;2022-09-25T13:31:12;18.80;99.90
9497;DHT22;4786;51.270;4.456;2022-09-25T13:34:02;18.80;99.90
9497;DHT22;4786;51.270;4.456;2022-09-25T13:36:40;18.70;99.90
9497;DHT22;4786;51.270;4.456;2022-09-25T14:06:16;18.70;99.90
9497;DHT22;4786;51.270;4.456;2022-09-25T14:08:44;18.80;99.90
9497;DHT22;4786;51.270;4.456;2022-09-25T14:11:14;18.80;99.90
9497;DHT22;4786;51.270;4.456;2022-09-25T14:13:40;18.80;99.90
9497;DHT22;4786;51.270;4.456;2022-09-25T14:16:21;18.80;99.90
9497;DHT22;4786;51.270;4.456;2022-09-25T14:18:51;18.80;99.90
9497;DHT22;4786;51.270;4.456;2022-09-25T14:21:19;18.80;99.90
9497;DHT22;4786;51.270;4.456;2022-09-25T14:23:56;18.80;99.90
9497;DHT22;4786;51.270;4.456;2022-09-25T14:26:25;18.90;99.90
9497;DHT22;4786;51.270;4.456;2022-09-25T14:28:52;19.00;99.90
9497;DHT22;4786;51.270;4.456;2022-09-25T14:45:31;19.00;99.90
9497;DHT22;4786;51.270;4.456;2022-09-25T14:48:06;18.90;99.90
9497;DHT22;4786;51.270;4.456;2022-09-25T14:50:37;18.90;99.90
9497;DHT22;4786;51.270;4.456;2022-09-25T14:53:09;19.00;99.90
9497;DHT22;4786;51.270;4.456;2022-09-25T14:55:38;19.10;99.90
9497;DHT22;4786;51.270;4.456;2022-09-25T14:58:12;19.00;99.90
9497;DHT22;4786;51.270;4.456;2022-09-25T15:00:45;18.90;99.90
9497;DHT22;4786;51.270;4.456;2022-09-25T15:03:13;18.80;99.90
9497;DHT22;4786;51.270;4.456;2022-09-25T15:05:45;18.80;99.90
9497;DHT22;4786;51.270;4.456;2022-09-25T15:10:47;18.50;99.90
9497;DHT22;4786;51.270;4.456;2022-09-25T15:16:02;18.20;99.90
9497;DHT22;4786;51.270;4.456;2022-09-25T15:19:15;18.30;99.90
9497;DHT22;4786;51.270;4.456;2022-09-25T15:21:42;18.30;99.90
9497;DHT22;4786;51.270;4.456;2022-09-25T15:24:13;18.30;99.90
9497;DHT22;4786;51.270;4.456;2022-09-25T15:26:49;18.30;99.90
9497;DHT22;4786;51.270;4.456;2022-09-25T15:29:22;18.30;99.90
9497;DHT22;4786;51.270;4.456;2022-09-25T15:31:49;18.30;99.90
9497;DHT22;4786;51.270;4.456;2022-09-25T15:34:24;18.20;99.90
9497;DHT22;4786;51.270;4.456;2022-09-25T15:36:51;18.10;99.90
9497;DHT22;4786;51.270;4.456;2022-09-25T15:39:23;18.10;99.90
9497;DHT22;4786;51.270;4.456;2022-09-25T15:41:49;18.00;99.90
9497;DHT22;4786;51.270;4.456;2022-09-25T15:44:23;18.00;99.90
9497;DHT22;4786;51.270;4.456;2022-09-25T15:46:53;18.00;99.90
9497;DHT22;4786;51.270;4.456;2022-09-25T15:49:30;18.00;99.90
9497;DHT22;4786;51.270;4.456;2022-09-25T15:52:02;18.10;99.90
9497;DHT22;4786;51.270;4.456;2022-09-25T15:54:42;18.00;99.90
9497;DHT22;4786;51.270;4.456;2022-09-25T15:57:13;17.90;99.90
9497;DHT22;4786;51.270;4.456;2022-09-25T15:59:45;17.80;99.90
9497;DHT22;4786;51.270;4.456;2022-09-25T16:02:31;17.90;99.90
9497;DHT22;4786;51.270;4.456;2022-09-25T16:05:18;17.80;99.90
9497;DHT22;4786;51.270;4.456;2022-09-25T16:07:46;17.70;99.90
9497;DHT22;4786;51.270;4.456;2022-09-25T16:12:43;17.50;99.90
9497;DHT22;4786;51.270;4.456;2022-09-25T16:20:44;17.40;99.90
9497;DHT22;4786;51.270;4.456;2022-09-25T16:23:27;17.40;99.90
9497;DHT22;4786;51.270;4.456;2022-09-25T16:25:54;17.40;99.90
9497;DHT22;4786;51.270;4.456;2022-09-25T16:28:27;17.30;99.90
9497;DHT22;4786;51.270;4.456;2022-09-25T16:30:57;17.30;99.90
9497;DHT22;4786;51.270;4.456;2022-09-25T16:33:32;17.30;99.90
9497;DHT22;4786;51.270;4.456;2022-09-25T16:36:05;17.30;99.90
9497;DHT22;4786;51.270;4.456;2022-09-25T16:38:35;17.20;99.90
9497;DHT22;4786;51.270;4.456;2022-09-25T16:41:17;17.20;99.90
9497;DHT22;4786;51.270;4.456;2022-09-25T16:43:44;17.20;99.90
9497;DHT22;4786;51.270;4.456;2022-09-25T16:46:15;17.10;99.90
9497;DHT22;4786;51.270;4.456;2022-09-25T16:48:43;17.10;99.90
9497;DHT22;4786;51.270;4.456;2022-09-25T16:51:23;17.00;99.90
9497;DHT22;4786;51.270;4.456;2022-09-25T16:53:52;17.00;99.90
9497;DHT22;4786;51.270;4.456;2022-09-25T16:56:22;16.90;99.90
9497;DHT22;4786;51.270;4.456;2022-09-25T16:58:48;16.90;99.90
9497;DHT22;4786;51.270;4.456;2022-09-25T17:01:16;16.80;99.90
9497;DHT22;4786;51.270;4.456;2022-09-25T17:03:42;16.70;99.90
9497;DHT22;4786;51.270;4.456;2022-09-25T17:06:24;16.70;99.90
9497;DHT22;4786;51.270;4.456;2022-09-25T17:08:57;16.70;99.90
9497;DHT22;4786;51.270;4.456;2022-09-25T17:11:23;16.60;99.90
9497;DHT22;4786;51.270;4.456;2022-09-25T17:13:50;16.50;99.90
9497;DHT22;4786;51.270;4.456;2022-09-25T17:16:16;16.50;99.90
9497;DHT22;4786;51.270;4.456;2022-09-25T17:18:42;16.50;99.90
9497;DHT22;4786;51.270;4.456;2022-09-25T17:21:14;16.50;99.90
9497;DHT22;4786;51.270;4.456;2022-09-25T17:23:42;16.50;99.90
9497;DHT22;4786;51.270;4.456;2022-09-25T17:26:23;16.50;99.90
9497;DHT22;4786;51.270;4.456;2022-09-25T17:28:49;16.50;99.90
9497;DHT22;4786;51.270;4.456;2022-09-25T17:31:18;16.40;99.90
9497;DHT22;4786;51.270;4.456;2022-09-25T17:33:45;16.40;99.90
9497;DHT22;4786;51.270;4.456;2022-09-25T17:36:12;16.40;99.90
9497;DHT22;4786;51.270;4.456;2022-09-25T17:38:38;16.40;99.90
9497;DHT22;4786;51.270;4.456;2022-09-25T17:41:13;16.30;99.90
9497;DHT22;4786;51.270;4.456;2022-09-25T17:43:41;16.30;99.90
9497;DHT22;4786;51.270;4.456;2022-09-25T17:46:08;16.20;99.90
9497;DHT22;4786;51.270;4.456;2022-09-25T17:48:35;16.10;99.90
9497;DHT22;4786;51.270;4.456;2022-09-25T17:51:08;16.10;99.90
9497;DHT22;4786;51.270;4.456;2022-09-25T17:53:35;16.00;99.90
9497;DHT22;4786;51.270;4.456;2022-09-25T17:56:01;16.00;99.90
9497;DHT22;4786;51.270;4.456;2022-09-25T17:58:28;15.90;99.90
9497;DHT22;4786;51.270;4.456;2022-09-25T18:00:56;15.80;99.90
9497;DHT22;4786;51.270;4.456;2022-09-25T18:03:24;15.70;99.90
9497;DHT22;4786;51.270;4.456;2022-09-25T18:05:51;15.70;99.90
9497;DHT22;4786;51.270;4.456;2022-09-25T18:08:17;15.60;99.90
9497;DHT22;4786;51.270;4.456;2022-09-25T18:10:44;15.50;99.90
9497;DHT22;4786;51.270;4.456;2022-09-25T18:13:14;15.40;99.90
9497;DHT22;4786;51.270;4.456;2022-09-25T18:15:50;15.30;99.90
9497;DHT22;4786;51.270;4.456;2022-09-25T18:18:17;15.20;99.90
9497;DHT22;4786;51.270;4.456;2022-09-25T18:20:43;15.20;99.90
9497;DHT22;4786;51.270;4.456;2022-09-25T18:23:27;15.10;99.90
9497;DHT22;4786;51.270;4.456;2022-09-25T18:25:58;15.10;99.90
9497;DHT22;4786;51.270;4.456;2022-09-25T18:28:24;15.10;99.90
9497;DHT22;4786;51.270;4.456;2022-09-25T18:30:50;15.00;99.90
9497;DHT22;4786;51.270;4.456;2022-09-25T18:33:15;14.90;99.90
9497;DHT22;4786;51.270;4.456;2022-09-25T18:35:42;14.90;99.90
9497;DHT22;4786;51.270;4.456;2022-09-25T18:38:08;14.90;99.90
9497;DHT22;4786;51.270;4.456;2022-09-25T18:40:34;14.80;99.90
9497;DHT22;4786;51.270;4.456;2022-09-25T18:43:00;14.80;99.90
9497;DHT22;4786;51.270;4.456;2022-09-25T18:45:27;14.70;99.90
9497;DHT22;4786;51.270;4.456;2022-09-25T18:47:54;14.70;99.90
9497;DHT22;4786;51.270;4.456;2022-09-25T18:50:20;14.70;99.90
9497;DHT22;4786;51.270;4.456;2022-09-25T18:52:48;14.70;99.90
9497;DHT22;4786;51.270;4.456;2022-09-25T18:55:14;14.70;99.90
9497;DHT22;4786;51.270;4.456;2022-09-25T18:57:42;14.70;99.90
9497;DHT22;4786;51.270;4.456;2022-09-25T19:00:08;14.80;99.90
9497;DHT22;4786;51.270;4.456;2022-09-25T19:02:34;14.80;99.90
9497;DHT22;4786;51.270;4.456;2022-09-25T19:05:04;14.70;99.90
9497;DHT22;4786;51.270;4.456;2022-09-25T19:07:30;14.60;99.90
9497;DHT22;4786;51.270;4.456;2022-09-25T19:09:56;14.60;99.90
9497;DHT22;4786;51.270;4.456;2022-09-25T19:12:24;14.60;99.90
9497;DHT22;4786;51.270;4.456;2022-09-25T19:14:50;14.60;99.90
9497;DHT22;4786;51.270;4.456;2022-09-25T19:17:17;14.50;99.90
9497;DHT22;4786;51.270;4.456;2022-09-25T19:19:43;14.50;99.90
9497;DHT22;4786;51.270;4.456;2022-09-25T19:22:19;14.60;99.90
9497;DHT22;4786;51.270;4.456;2022-09-25T19:24:46;14.70;99.90
9497;DHT22;4786;51.270;4.456;2022-09-25T19:27:15;14.60;99.90